Saffet Bey — TCUZ — position and weather

sailwx.info

Track history (hours):
 
Tides and Currents Weather Stations Pressure Air Temp Water Temp Dewpoint Dewpoint Depression Visibility Wind Speed Wind Dir Waves Ship Positions

Saffet Bey

Last reported at 2014-Aug-18 07:33 UTC. Time now 2014-Aug-23 13:28 UTC.
Position N 36°46' E 023°53'.

Length 164 m; draft 6.4 m.

Type: Cargo ship. MMSI: 271000419.

Date/timePositionNaut miles runAvg speedWind from/ knotsBaromVisibWave heightAir tempDewpointWater temp
2014-Aug-18 07:33N 36°46' E 023°53'4916.2
2014-Aug-18 04:31N 37°13' E 024°44'1616.1
2014-Aug-18 03:33N 37°22' E 025°00'1616.4
2014-Aug-18 02:33N 37°32' E 025°16'2 0.1
2014-Aug-17 07:27N 37°33' E 025°18'1314.9
2014-Aug-17 06:33N 37°25' E 025°05'1514.9
2014-Aug-17 05:32N 37°16' E 024°49'1414.5
2014-Aug-17 04:33N 37°07' E 024°35'  
2014-Aug-11 04:31N 36°25' E 023°11'1414.8
2014-Aug-11 03:33N 36°32' E 023°26'1514.8
2014-Aug-11 02:33N 36°40' E 023°42'1714.9
2014-Aug-11 01:26N 36°49' E 023°59'1314.7
2014-Aug-11 00:33N 36°56' E 024°13'1514.7
2014-Aug-10 23:32N 37°04' E 024°29'1515.2
2014-Aug-10 22:33N 37°13' E 024°44'1515.3
2014-Aug-10 21:33N 37°22' E 024°59'1515.3
2014-Aug-10 20:33N 37°31' E 025°15'1515.2
2014-Aug-10 19:33N 37°41' E 025°29'1514.8
2014-Aug-10 18:33N 37°52' E 025°42'  
Track history (hours):
 
Tides and Currents Weather Stations Pressure Air Temp Water Temp Dewpoint Dewpoint Depression Visibility Wind Speed Wind Dir Waves Ship Positions

Saffet Bey

Last reported at 2014-Aug-18 07:33 UTC. Time now 2014-Aug-23 13:28 UTC.
Position N 36°46' E 023°53'.

Length 164 m; draft 6.4 m.

Type: Cargo ship. MMSI: 271000419.

Date/timePositionNaut miles runAvg speedWind from/ knotsBaromVisibWave heightAir tempDewpointWater temp
2014-Aug-18 07:33N 36°46' E 023°53'4916.2
2014-Aug-18 04:31N 37°13' E 024°44'1616.1
2014-Aug-18 03:33N 37°22' E 025°00'1616.4
2014-Aug-18 02:33N 37°32' E 025°16'2 0.1
2014-Aug-17 07:27N 37°33' E 025°18'1314.9
2014-Aug-17 06:33N 37°25' E 025°05'1514.9
2014-Aug-17 05:32N 37°16' E 024°49'1414.5
2014-Aug-17 04:33N 37°07' E 024°35'  
2014-Aug-11 04:31N 36°25' E 023°11'1414.8
2014-Aug-11 03:33N 36°32' E 023°26'1514.8
2014-Aug-11 02:33N 36°40' E 023°42'1714.9
2014-Aug-11 01:26N 36°49' E 023°59'1314.7
2014-Aug-11 00:33N 36°56' E 024°13'1514.7
2014-Aug-10 23:32N 37°04' E 024°29'1515.2
2014-Aug-10 22:33N 37°13' E 024°44'1515.3
2014-Aug-10 21:33N 37°22' E 024°59'1515.3
2014-Aug-10 20:33N 37°31' E 025°15'1515.2
2014-Aug-10 19:33N 37°41' E 025°29'1514.8
2014-Aug-10 18:33N 37°52' E 025°42'  

Dump ship's entire track history